sensor_id;sensor_type;location;lat;lon;timestamp;pressure;altitude;pressure_sealevel;temperature;humidity
64853;BME280;56050;55.558;-4.644;2022-09-12T00:01:25;100687.78;;;18.49;72.23
64853;BME280;56050;55.558;-4.644;2022-09-12T00:03:56;100691.69;;;18.48;72.48
64853;BME280;56050;55.558;-4.644;2022-09-12T00:06:31;100690.94;;;18.48;72.39
64853;BME280;56050;55.558;-4.644;2022-09-12T00:09:11;100684.72;;;18.47;72.33
64853;BME280;56050;55.558;-4.644;2022-09-12T00:11:43;100688.63;;;18.46;72.15
64853;BME280;56050;55.558;-4.644;2022-09-12T00:14:14;100687.84;;;18.46;72.35
64853;BME280;56050;55.558;-4.644;2022-09-12T00:16:40;100683.16;;;18.46;72.24
64853;BME280;56050;55.558;-4.644;2022-09-12T00:19:07;100684.72;;;18.47;72.10
64853;BME280;56050;55.558;-4.644;2022-09-12T00:21:35;100690.16;;;18.47;72.33
64853;BME280;56050;55.558;-4.644;2022-09-12T00:24:01;100691.34;;;18.46;72.06
64853;BME280;56050;55.558;-4.644;2022-09-12T00:26:26;100682.09;;;18.44;72.16
64853;BME280;56050;55.558;-4.644;2022-09-12T00:28:52;100686.47;;;18.41;72.11
64853;BME280;56050;55.558;-4.644;2022-09-12T00:31:21;100697.47;;;18.38;71.87
64853;BME280;56050;55.558;-4.644;2022-09-12T00:33:48;100710.16;;;18.32;72.00
64853;BME280;56050;55.558;-4.644;2022-09-12T00:36:19;100723.16;;;18.28;72.40
64853;BME280;56050;55.558;-4.644;2022-09-12T00:38:46;100715.84;;;18.25;72.10
64853;BME280;56050;55.558;-4.644;2022-09-12T00:41:24;100726.97;;;18.17;72.38
64853;BME280;56050;55.558;-4.644;2022-09-12T00:43:53;100719.34;;;18.12;72.41
64853;BME280;56050;55.558;-4.644;2022-09-12T00:48:51;100714.31;;;17.98;73.01
64853;BME280;56050;55.558;-4.644;2022-09-12T00:51:19;100707.47;;;17.94;72.83
64853;BME280;56050;55.558;-4.644;2022-09-12T00:53:47;100706.78;;;17.90;72.87
64853;BME280;56050;55.558;-4.644;2022-09-12T00:56:16;100707.66;;;17.87;72.94
64853;BME280;56050;55.558;-4.644;2022-09-12T00:59:07;100716.72;;;17.84;73.11
64853;BME280;56050;55.558;-4.644;2022-09-12T01:01:35;100724.91;;;17.84;72.87
64853;BME280;56050;55.558;-4.644;2022-09-12T01:04:01;100717.81;;;17.86;72.90
64853;BME280;56050;55.558;-4.644;2022-09-12T01:06:32;100715.84;;;17.87;72.91
64853;BME280;56050;55.558;-4.644;2022-09-12T01:08:59;100718.56;;;17.87;72.97
64853;BME280;56050;55.558;-4.644;2022-09-12T01:11:28;100709.75;;;17.83;73.08
64853;BME280;56050;55.558;-4.644;2022-09-12T01:13:54;100716.50;;;17.78;73.47
64853;BME280;56050;55.558;-4.644;2022-09-12T01:16:19;100709.97;;;17.76;73.34
64853;BME280;56050;55.558;-4.644;2022-09-12T01:27:18;100715.63;;;17.69;73.44
64853;BME280;56050;55.558;-4.644;2022-09-12T01:30:03;100713.66;;;17.69;73.13
64853;BME280;56050;55.558;-4.644;2022-09-12T01:35:31;100703.31;;;17.77;72.95
64853;BME280;56050;55.558;-4.644;2022-09-12T01:48:37;100714.09;;;17.93;72.33
64853;BME280;56050;55.558;-4.644;2022-09-12T01:51:27;100714.88;;;17.93;72.45
64853;BME280;56050;55.558;-4.644;2022-09-12T01:54:01;100723.38;;;17.95;72.30
64853;BME280;56050;55.558;-4.644;2022-09-12T01:56:30;100720.63;;;17.95;72.21
64853;BME280;56050;55.558;-4.644;2022-09-12T01:59:04;100718.69;;;17.96;72.25
64853;BME280;56050;55.558;-4.644;2022-09-12T02:01:32;100719.00;;;17.98;72.28
64853;BME280;56050;55.558;-4.644;2022-09-12T02:04:17;100720.53;;;17.99;72.38
64853;BME280;56050;55.558;-4.644;2022-09-12T02:06:48;100722.06;;;18.00;71.94
64853;BME280;56050;55.558;-4.644;2022-09-12T02:09:18;100726.22;;;18.04;71.91
64853;BME280;56050;55.558;-4.644;2022-09-12T02:11:45;100724.25;;;18.05;71.85
64853;BME280;56050;55.558;-4.644;2022-09-12T02:14:21;100733.63;;;18.04;72.01
64853;BME280;56050;55.558;-4.644;2022-09-12T02:16:53;100733.19;;;18.05;71.75
64853;BME280;56050;55.558;-4.644;2022-09-12T02:19:23;100745.19;;;18.08;71.86
64853;BME280;56050;55.558;-4.644;2022-09-12T02:21:53;100740.50;;;18.08;71.96
64853;BME280;56050;55.558;-4.644;2022-09-12T02:24:21;100737.34;;;18.10;71.70
64853;BME280;56050;55.558;-4.644;2022-09-12T02:26:59;100740.50;;;18.08;71.99
64853;BME280;56050;55.558;-4.644;2022-09-12T02:29:27;100738.19;;;18.07;71.90
64853;BME280;56050;55.558;-4.644;2022-09-12T02:32:04;100740.59;;;18.05;71.88
64853;BME280;56050;55.558;-4.644;2022-09-12T02:37:35;100740.72;;;18.01;71.74
64853;BME280;56050;55.558;-4.644;2022-09-12T02:40:04;100743.44;;;18.01;71.98
64853;BME280;56050;55.558;-4.644;2022-09-12T02:42:33;100742.78;;;17.97;71.77
64853;BME280;56050;55.558;-4.644;2022-09-12T02:44:59;100734.28;;;17.95;72.29
64853;BME280;56050;55.558;-4.644;2022-09-12T02:47:33;100738.63;;;17.93;72.00
64853;BME280;56050;55.558;-4.644;2022-09-12T02:49:59;100737.44;;;17.94;72.08
64853;BME280;56050;55.558;-4.644;2022-09-12T02:52:27;100731.66;;;17.92;72.03
64853;BME280;56050;55.558;-4.644;2022-09-12T02:54:54;100735.13;;;17.92;71.83
64853;BME280;56050;55.558;-4.644;2022-09-12T02:57:21;100740.94;;;17.94;71.81
64853;BME280;56050;55.558;-4.644;2022-09-12T02:59:48;100730.03;;;17.94;72.08
64853;BME280;56050;55.558;-4.644;2022-09-12T03:02:35;100736.69;;;17.93;72.13
64853;BME280;56050;55.558;-4.644;2022-09-12T03:05:15;100749.53;;;17.93;72.07
64853;BME280;56050;55.558;-4.644;2022-09-12T03:14:10;100748.66;;;17.83;72.02
64853;BME280;56050;55.558;-4.644;2022-09-12T03:16:46;100745.59;;;17.81;72.28
64853;BME280;56050;55.558;-4.644;2022-09-12T03:19:44;100744.94;;;17.77;72.09
64853;BME280;56050;55.558;-4.644;2022-09-12T03:27:16;100736.00;;;17.77;72.06
64853;BME280;56050;55.558;-4.644;2022-09-12T03:29:44;100746.03;;;17.80;71.91
64853;BME280;56050;55.558;-4.644;2022-09-12T03:32:12;100746.38;;;17.82;72.06
64853;BME280;56050;55.558;-4.644;2022-09-12T03:34:37;100750.19;;;17.84;71.84
64853;BME280;56050;55.558;-4.644;2022-09-12T03:37:04;100748.22;;;17.85;71.82
64853;BME280;56050;55.558;-4.644;2022-09-12T03:39:29;100743.53;;;17.85;71.80
64853;BME280;56050;55.558;-4.644;2022-09-12T03:41:55;100739.63;;;17.86;71.63
64853;BME280;56050;55.558;-4.644;2022-09-12T03:44:21;100743.53;;;17.85;71.68
64853;BME280;56050;55.558;-4.644;2022-09-12T03:46:47;100747.81;;;17.86;71.82
64853;BME280;56050;55.558;-4.644;2022-09-12T03:49:12;100748.22;;;17.85;71.93
64853;BME280;56050;55.558;-4.644;2022-09-12T03:51:38;100749.94;;;17.79;71.82
64853;BME280;56050;55.558;-4.644;2022-09-12T03:54:04;100747.69;;;17.77;71.94
64853;BME280;56050;55.558;-4.644;2022-09-12T03:56:30;100750.84;;;17.76;71.91
64853;BME280;56050;55.558;-4.644;2022-09-12T03:58:55;100739.19;;;17.75;71.93
64853;BME280;56050;55.558;-4.644;2022-09-12T04:01:22;100739.59;;;17.74;71.93
64853;BME280;56050;55.558;-4.644;2022-09-12T04:03:49;100731.56;;;17.70;71.87
64853;BME280;56050;55.558;-4.644;2022-09-12T04:06:17;100737.75;;;17.71;71.78
64853;BME280;56050;55.558;-4.644;2022-09-12T04:08:43;100733.50;;;17.70;71.86
64853;BME280;56050;55.558;-4.644;2022-09-12T04:11:13;100732.72;;;17.69;71.99
64853;BME280;56050;55.558;-4.644;2022-09-12T04:13:41;100729.69;;;17.67;72.24
64853;BME280;56050;55.558;-4.644;2022-09-12T04:16:07;100739.81;;;17.67;72.23
64853;BME280;56050;55.558;-4.644;2022-09-12T04:18:33;100732.84;;;17.66;72.23
64853;BME280;56050;55.558;-4.644;2022-09-12T04:21:06;100729.78;;;17.64;72.15
64853;BME280;56050;55.558;-4.644;2022-09-12T04:23:32;100732.06;;;17.65;72.04
64853;BME280;56050;55.558;-4.644;2022-09-12T04:25:59;100736.31;;;17.66;72.21
64853;BME280;56050;55.558;-4.644;2022-09-12T04:28:26;100737.75;;;17.71;71.96
64853;BME280;56050;55.558;-4.644;2022-09-12T04:30:53;100748.13;;;17.76;71.91
64853;BME280;56050;55.558;-4.644;2022-09-12T04:33:19;100748.44;;;17.78;71.98
64853;BME280;56050;55.558;-4.644;2022-09-12T04:35:46;100752.25;;;17.80;71.94
64853;BME280;56050;55.558;-4.644;2022-09-12T04:38:11;100753.03;;;17.81;72.01
64853;BME280;56050;55.558;-4.644;2022-09-12T04:40:37;100750.63;;;17.83;71.96
64853;BME280;56050;55.558;-4.644;2022-09-12T04:43:03;100756.41;;;17.85;71.84
64853;BME280;56050;55.558;-4.644;2022-09-12T04:45:29;100753.25;;;17.86;71.59
64853;BME280;56050;55.558;-4.644;2022-09-12T04:47:54;100755.53;;;17.88;71.82
64853;BME280;56050;55.558;-4.644;2022-09-12T04:50:20;100754.00;;;17.87;71.74
64853;BME280;56050;55.558;-4.644;2022-09-12T04:52:50;100767.63;;;17.87;71.82
64853;BME280;56050;55.558;-4.644;2022-09-12T04:55:16;100762.94;;;17.87;71.69
64853;BME280;56050;55.558;-4.644;2022-09-12T04:57:42;100759.78;;;17.89;71.69
64853;BME280;56050;55.558;-4.644;2022-09-12T05:00:08;100761.31;;;17.90;71.59
64853;BME280;56050;55.558;-4.644;2022-09-12T05:02:39;100762.06;;;17.90;71.70
64853;BME280;56050;55.558;-4.644;2022-09-12T05:05:05;100767.09;;;17.92;71.43
64853;BME280;56050;55.558;-4.644;2022-09-12T05:07:30;100770.56;;;17.92;71.63
64853;BME280;56050;55.558;-4.644;2022-09-12T05:09:56;100760.03;;;17.94;71.58
64853;BME280;56050;55.558;-4.644;2022-09-12T05:12:22;100766.56;;;17.97;71.35
64853;BME280;56050;55.558;-4.644;2022-09-12T05:14:48;100762.97;;;18.00;71.52
64853;BME280;56050;55.558;-4.644;2022-09-12T05:17:13;100769.84;;;18.04;71.45
64853;BME280;56050;55.558;-4.644;2022-09-12T05:19:39;100764.28;;;18.08;71.41
64853;BME280;56050;55.558;-4.644;2022-09-12T05:22:04;100767.66;;;18.12;71.18
64853;BME280;56050;55.558;-4.644;2022-09-12T05:24:30;100768.72;;;18.14;71.08
64853;BME280;56050;55.558;-4.644;2022-09-12T05:26:57;100771.34;;;18.18;70.77
64853;BME280;56050;55.558;-4.644;2022-09-12T05:29:22;100770.94;;;18.19;70.82
64853;BME280;56050;55.558;-4.644;2022-09-12T05:31:49;100765.47;;;18.19;70.93
64853;BME280;56050;55.558;-4.644;2022-09-12T05:34:16;100764.25;;;18.20;71.08
64853;BME280;56050;55.558;-4.644;2022-09-12T05:36:42;100765.03;;;18.21;70.79
64853;BME280;56050;55.558;-4.644;2022-09-12T05:39:07;100765.03;;;18.21;70.77
64853;BME280;56050;55.558;-4.644;2022-09-12T05:41:34;100768.22;;;18.19;70.62
64853;BME280;56050;55.558;-4.644;2022-09-12T05:44:03;100775.31;;;18.17;70.73
64853;BME280;56050;55.558;-4.644;2022-09-12T05:46:30;100774.19;;;18.14;70.92
64853;BME280;56050;55.558;-4.644;2022-09-12T05:49:00;100771.13;;;18.12;71.20
64853;BME280;56050;55.558;-4.644;2022-09-12T05:51:27;100784.78;;;18.12;70.93
64853;BME280;56050;55.558;-4.644;2022-09-12T05:53:58;100786.00;;;18.11;70.94
64853;BME280;56050;55.558;-4.644;2022-09-12T05:56:29;100789.47;;;18.12;71.01
64853;BME280;56050;55.558;-4.644;2022-09-12T05:58:57;100785.53;;;18.13;70.92
64853;BME280;56050;55.558;-4.644;2022-09-12T06:01:25;100794.91;;;18.12;71.19
64853;BME280;56050;55.558;-4.644;2022-09-12T06:03:52;100792.94;;;18.12;71.30
64853;BME280;56050;55.558;-4.644;2022-09-12T06:06:21;100798.41;;;18.12;70.96
64853;BME280;56050;55.558;-4.644;2022-09-12T06:08:48;100799.19;;;18.13;70.94
64853;BME280;56050;55.558;-4.644;2022-09-12T06:11:17;100796.44;;;18.13;71.07
64853;BME280;56050;55.558;-4.644;2022-09-12T06:13:43;100795.34;;;18.10;70.95
64853;BME280;56050;55.558;-4.644;2022-09-12T06:16:11;100797.00;;;18.08;71.17
64853;BME280;56050;55.558;-4.644;2022-09-12T06:18:37;100793.50;;;18.07;71.30
64853;BME280;56050;55.558;-4.644;2022-09-12T06:21:05;100795.47;;;18.07;71.14
64853;BME280;56050;55.558;-4.644;2022-09-12T06:23:31;100788.03;;;18.07;71.36
64853;BME280;56050;55.558;-4.644;2022-09-12T06:25:57;100796.22;;;18.07;71.18
64853;BME280;56050;55.558;-4.644;2022-09-12T06:28:24;100787.38;;;18.03;71.38
64853;BME280;56050;55.558;-4.644;2022-09-12T06:30:49;100788.28;;;18.00;71.36
64853;BME280;56050;55.558;-4.644;2022-09-12T06:33:15;100790.22;;;18.00;71.17
64853;BME280;56050;55.558;-4.644;2022-09-12T06:35:41;100788.69;;;17.99;71.41
64853;BME280;56050;55.558;-4.644;2022-09-12T06:38:06;100785.97;;;17.99;71.34
64853;BME280;56050;55.558;-4.644;2022-09-12T06:40:32;100796.22;;;17.95;71.29
64853;BME280;56050;55.558;-4.644;2022-09-12T06:42:58;100796.66;;;17.93;71.24
64853;BME280;56050;55.558;-4.644;2022-09-12T06:45:24;100799.81;;;17.92;71.39
64853;BME280;56050;55.558;-4.644;2022-09-12T06:47:50;100798.59;;;17.93;71.29
64853;BME280;56050;55.558;-4.644;2022-09-12T06:50:16;100809.19;;;17.91;71.52
64853;BME280;56050;55.558;-4.644;2022-09-12T06:52:41;100811.91;;;17.91;71.64
64853;BME280;56050;55.558;-4.644;2022-09-12T06:55:08;100808.84;;;17.89;71.25
64853;BME280;56050;55.558;-4.644;2022-09-12T06:57:34;100810.03;;;17.88;71.47
64853;BME280;56050;55.558;-4.644;2022-09-12T07:00:04;100815.16;;;17.86;71.60
64853;BME280;56050;55.558;-4.644;2022-09-12T07:02:30;100806.56;;;17.87;71.74
64853;BME280;56050;55.558;-4.644;2022-09-12T07:04:55;100813.53;;;17.88;71.38
64853;BME280;56050;55.558;-4.644;2022-09-12T07:07:21;100820.53;;;17.89;71.61
64853;BME280;56050;55.558;-4.644;2022-09-12T07:09:46;100818.91;;;17.92;71.34
64853;BME280;56050;55.558;-4.644;2022-09-12T07:12:13;100824.66;;;17.94;71.46
64853;BME280;56050;55.558;-4.644;2022-09-12T07:14:38;100830.03;;;17.97;71.46
64853;BME280;56050;55.558;-4.644;2022-09-12T07:17:04;100836.56;;;18.00;71.38
64853;BME280;56050;55.558;-4.644;2022-09-12T07:19:30;100832.13;;;18.06;71.73
64853;BME280;56050;55.558;-4.644;2022-09-12T07:21:55;100838.22;;;18.10;71.69
64853;BME280;56050;55.558;-4.644;2022-09-12T07:24:20;100844.84;;;18.09;71.74
64853;BME280;56050;55.558;-4.644;2022-09-12T07:26:46;100834.06;;;18.05;71.23
64853;BME280;56050;55.558;-4.644;2022-09-12T07:29:15;100838.00;;;18.04;71.61
64853;BME280;56050;55.558;-4.644;2022-09-12T07:31:41;100834.06;;;18.05;71.66
64853;BME280;56050;55.558;-4.644;2022-09-12T07:34:07;100847.34;;;18.03;71.78
64853;BME280;56050;55.558;-4.644;2022-09-12T07:36:33;100840.50;;;17.99;71.60
64853;BME280;56050;55.558;-4.644;2022-09-12T07:38:58;100871.00;;;17.94;71.86
64853;BME280;56050;55.558;-4.644;2022-09-12T07:41:28;100866.81;;;17.77;72.16
64853;BME280;56050;55.558;-4.644;2022-09-12T07:43:56;100867.41;;;17.55;72.21
64853;BME280;56050;55.558;-4.644;2022-09-12T07:46:23;100868.34;;;17.33;72.39
64853;BME280;56050;55.558;-4.644;2022-09-12T07:48:53;100870.41;;;17.13;72.53
64853;BME280;56050;55.558;-4.644;2022-09-12T07:51:19;100875.47;;;16.98;72.93
64853;BME280;56050;55.558;-4.644;2022-09-12T07:53:45;100876.97;;;16.83;73.12
64853;BME280;56050;55.558;-4.644;2022-09-12T07:56:11;100878.41;;;16.71;73.12
64853;BME280;56050;55.558;-4.644;2022-09-12T07:58:39;100876.25;;;16.63;73.35
64853;BME280;56050;55.558;-4.644;2022-09-12T08:01:11;100879.16;;;16.56;73.59
64853;BME280;56050;55.558;-4.644;2022-09-12T08:03:42;100886.22;;;16.53;73.79
64853;BME280;56050;55.558;-4.644;2022-09-12T08:06:13;100885.47;;;16.49;74.01
64853;BME280;56050;55.558;-4.644;2022-09-12T08:08:40;100884.03;;;16.44;73.77
64853;BME280;56050;55.558;-4.644;2022-09-12T08:11:10;100893.47;;;16.40;73.62
64853;BME280;56050;55.558;-4.644;2022-09-12T08:13:37;100883.84;;;16.35;73.54
64853;BME280;56050;55.558;-4.644;2022-09-12T08:16:05;100888.50;;;16.35;73.30
64853;BME280;56050;55.558;-4.644;2022-09-12T08:18:33;100907.19;;;16.33;73.07
64853;BME280;56050;55.558;-4.644;2022-09-12T08:21:03;100895.22;;;16.30;73.07
64853;BME280;56050;55.558;-4.644;2022-09-12T08:23:30;100888.22;;;16.29;73.00
64853;BME280;56050;55.558;-4.644;2022-09-12T08:26:00;100896.06;;;16.27;72.89
64853;BME280;56050;55.558;-4.644;2022-09-12T08:28:28;100903.09;;;16.25;73.06
64853;BME280;56050;55.558;-4.644;2022-09-12T08:31:03;100903.25;;;16.18;73.17
64853;BME280;56050;55.558;-4.644;2022-09-12T08:33:29;100921.91;;;16.16;72.96
64853;BME280;56050;55.558;-4.644;2022-09-12T08:36:17;100910.09;;;16.06;72.86
64853;BME280;56050;55.558;-4.644;2022-09-12T08:38:45;100914.81;;;16.02;72.50
64853;BME280;56050;55.558;-4.644;2022-09-12T08:53:02;100928.66;;;15.88;71.83
64853;BME280;56050;55.558;-4.644;2022-09-12T08:55:04;100931.13;;;16.02;71.59
64853;BME280;56050;55.558;-4.644;2022-09-12T08:57:31;100935.59;;;16.12;71.46
64853;BME280;56050;55.558;-4.644;2022-09-12T08:59:57;100935.03;;;16.21;71.25
64853;BME280;56050;55.558;-4.644;2022-09-12T09:13:48;100968.16;;;16.55;68.35
64853;BME280;56050;55.558;-4.644;2022-09-12T09:16:40;100960.75;;;16.56;68.05
64853;BME280;56050;55.558;-4.644;2022-09-12T09:19:16;100959.97;;;16.55;68.11
64853;BME280;56050;55.558;-4.644;2022-09-12T09:21:59;100958.38;;;16.58;67.67
64853;BME280;56050;55.558;-4.644;2022-09-12T09:24:49;100960.25;;;16.61;66.76
64853;BME280;56050;55.558;-4.644;2022-09-12T09:27:29;100961.69;;;16.65;66.64
64853;BME280;56050;55.558;-4.644;2022-09-12T09:29:56;100962.84;;;16.68;66.37
64853;BME280;56050;55.558;-4.644;2022-09-12T09:32:27;100959.25;;;16.71;66.27
64853;BME280;56050;55.558;-4.644;2022-09-12T09:34:55;100973.13;;;16.76;66.49
64853;BME280;56050;55.558;-4.644;2022-09-12T09:37:36;100973.38;;;16.82;66.16
64853;BME280;56050;55.558;-4.644;2022-09-12T09:40:47;100971.44;;;16.82;65.68
64853;BME280;56050;55.558;-4.644;2022-09-12T09:43:23;100971.09;;;16.80;65.25
64853;BME280;56050;55.558;-4.644;2022-09-12T09:45:53;100978.16;;;16.78;65.27
64853;BME280;56050;55.558;-4.644;2022-09-12T09:48:43;100980.09;;;16.77;64.96
64853;BME280;56050;55.558;-4.644;2022-09-12T09:51:08;100974.25;;;16.79;65.06
64853;BME280;56050;55.558;-4.644;2022-09-12T09:56:24;100981.06;;;16.87;65.42
64853;BME280;56050;55.558;-4.644;2022-09-12T09:58:50;100987.13;;;16.94;65.13
64853;BME280;56050;55.558;-4.644;2022-09-12T10:01:17;100983.88;;;16.99;65.26
64853;BME280;56050;55.558;-4.644;2022-09-12T10:03:51;100979.88;;;17.04;64.60
64853;BME280;56050;55.558;-4.644;2022-09-12T10:08:46;100984.28;;;17.18;64.43
64853;BME280;56050;55.558;-4.644;2022-09-12T10:11:21;100981.03;;;17.23;64.47
64853;BME280;56050;55.558;-4.644;2022-09-12T10:16:34;100988.75;;;17.40;64.46
64853;BME280;56050;55.558;-4.644;2022-09-12T10:19:20;100993.22;;;17.50;63.68
64853;BME280;56050;55.558;-4.644;2022-09-12T10:21:53;100996.22;;;17.56;63.72
64853;BME280;56050;55.558;-4.644;2022-09-12T10:24:27;100990.91;;;17.65;63.41
64853;BME280;56050;55.558;-4.644;2022-09-12T10:34:52;100996.81;;;17.92;63.31
64853;BME280;56050;55.558;-4.644;2022-09-12T10:37:27;101009.09;;;18.00;63.00
64853;BME280;56050;55.558;-4.644;2022-09-12T10:39:55;101015.13;;;18.08;62.93
64853;BME280;56050;55.558;-4.644;2022-09-12T10:45:21;101015.06;;;18.24;62.68
64853;BME280;56050;55.558;-4.644;2022-09-12T10:47:48;101012.59;;;18.30;62.28
64853;BME280;56050;55.558;-4.644;2022-09-12T10:50:35;101012.25;;;18.28;61.97
64853;BME280;56050;55.558;-4.644;2022-09-12T10:53:39;101005.25;;;18.27;61.91
64853;BME280;56050;55.558;-4.644;2022-09-12T10:56:15;101019.75;;;18.24;61.46
64853;BME280;56050;55.558;-4.644;2022-09-12T11:01:35;101015.53;;;18.06;61.04
64853;BME280;56050;55.558;-4.644;2022-09-12T11:13:00;101009.91;;;18.13;61.81
64853;BME280;56050;55.558;-4.644;2022-09-12T11:18:31;101018.84;;;18.14;61.15
64853;BME280;56050;55.558;-4.644;2022-09-12T11:21:19;101014.59;;;18.13;60.15
64853;BME280;56050;55.558;-4.644;2022-09-12T11:40:12;101003.31;;;17.82;61.57
64853;BME280;56050;55.558;-4.644;2022-09-12T11:42:46;101010.66;;;17.85;62.07
64853;BME280;56050;55.558;-4.644;2022-09-12T11:45:18;101012.19;;;17.86;62.08
64853;BME280;56050;55.558;-4.644;2022-09-12T11:47:51;101014.81;;;17.90;62.46
64853;BME280;56050;55.558;-4.644;2022-09-12T11:50:26;101026.81;;;17.92;61.91
64853;BME280;56050;55.558;-4.644;2022-09-12T11:52:56;101024.97;;;17.89;61.96
64853;BME280;56050;55.558;-4.644;2022-09-12T11:55:27;101024.59;;;17.87;62.30
64853;BME280;56050;55.558;-4.644;2022-09-12T11:57:56;101029.28;;;17.87;62.98
64853;BME280;56050;55.558;-4.644;2022-09-12T12:00:46;101035.94;;;17.86;62.04
64853;BME280;56050;55.558;-4.644;2022-09-12T12:03:36;101034.00;;;17.86;61.87
64853;BME280;56050;55.558;-4.644;2022-09-12T12:06:34;101042.06;;;17.90;62.10
64853;BME280;56050;55.558;-4.644;2022-09-12T12:09:03;101046.38;;;18.03;62.10
64853;BME280;56050;55.558;-4.644;2022-09-12T12:11:36;101047.31;;;18.13;61.11
64853;BME280;56050;55.558;-4.644;2022-09-12T12:14:25;101055.56;;;18.09;60.64
64853;BME280;56050;55.558;-4.644;2022-09-12T12:16:53;101054.56;;;18.03;60.89
64853;BME280;56050;55.558;-4.644;2022-09-12T12:19:32;101055.19;;;17.95;61.28
64853;BME280;56050;55.558;-4.644;2022-09-12T12:22:17;101047.19;;;17.88;61.87
64853;BME280;56050;55.558;-4.644;2022-09-12T12:27:49;101049.56;;;17.86;60.76
64853;BME280;56050;55.558;-4.644;2022-09-12T12:32:59;101049.31;;;17.80;61.34
64853;BME280;56050;55.558;-4.644;2022-09-12T12:37:59;101059.69;;;17.85;61.54
64853;BME280;56050;55.558;-4.644;2022-09-12T12:40:27;101062.69;;;17.91;61.48
64853;BME280;56050;55.558;-4.644;2022-09-12T12:43:02;101065.56;;;18.00;61.75
64853;BME280;56050;55.558;-4.644;2022-09-12T12:48:01;101068.34;;;18.12;61.66
64853;BME280;56050;55.558;-4.644;2022-09-12T12:50:33;101067.94;;;18.14;61.50
64853;BME280;56050;55.558;-4.644;2022-09-12T12:53:04;101074.91;;;18.15;61.49
64853;BME280;56050;55.558;-4.644;2022-09-12T12:55:36;101071.09;;;18.12;61.50
64853;BME280;56050;55.558;-4.644;2022-09-12T12:58:04;101072.63;;;18.13;61.40
64853;BME280;56050;55.558;-4.644;2022-09-12T13:00:35;101069.22;;;18.09;61.25
64853;BME280;56050;55.558;-4.644;2022-09-12T13:05:45;101082.06;;;18.09;60.47
64853;BME280;56050;55.558;-4.644;2022-09-12T13:10:51;101087.69;;;18.18;60.22
64853;BME280;56050;55.558;-4.644;2022-09-12T13:13:27;101081.28;;;18.25;59.89
64853;BME280;56050;55.558;-4.644;2022-09-12T13:15:56;101090.13;;;18.29;59.18
64853;BME280;56050;55.558;-4.644;2022-09-12T13:18:45;101086.06;;;18.20;59.16
64853;BME280;56050;55.558;-4.644;2022-09-12T13:21:13;101080.38;;;18.15;58.91
64853;BME280;56050;55.558;-4.644;2022-09-12T13:23:39;101080.47;;;18.11;59.63
64853;BME280;56050;55.558;-4.644;2022-09-12T13:26:21;101088.97;;;18.13;58.71
64853;BME280;56050;55.558;-4.644;2022-09-12T13:28:47;101077.13;;;18.20;58.92
64853;BME280;56050;55.558;-4.644;2022-09-12T13:31:22;101080.31;;;18.31;58.71
64853;BME280;56050;55.558;-4.644;2022-09-12T13:33:54;101082.44;;;18.40;58.30
64853;BME280;56050;55.558;-4.644;2022-09-12T13:36:49;101084.63;;;18.45;58.25
64853;BME280;56050;55.558;-4.644;2022-09-12T13:45:11;101094.97;;;18.53;56.51
64853;BME280;56050;55.558;-4.644;2022-09-12T13:47:46;101093.19;;;18.47;56.18
64853;BME280;56050;55.558;-4.644;2022-09-12T13:50:17;101097.28;;;18.39;55.81
64853;BME280;56050;55.558;-4.644;2022-09-12T13:52:47;101093.31;;;18.27;56.16
64853;BME280;56050;55.558;-4.644;2022-09-12T13:58:00;101089.25;;;18.03;56.31
64853;BME280;56050;55.558;-4.644;2022-09-12T14:00:26;101087.91;;;17.95;56.83
64853;BME280;56050;55.558;-4.644;2022-09-12T14:02:52;101076.38;;;17.87;56.80
64853;BME280;56050;55.558;-4.644;2022-09-12T14:05:38;101077.75;;;17.79;56.68
64853;BME280;56050;55.558;-4.644;2022-09-12T14:08:06;101075.13;;;17.76;57.16
64853;BME280;56050;55.558;-4.644;2022-09-12T14:10:33;101072.81;;;17.74;57.25
64853;BME280;56050;55.558;-4.644;2022-09-12T14:13:17;101078.78;;;17.69;57.68
64853;BME280;56050;55.558;-4.644;2022-09-12T14:15:46;101075.63;;;17.71;57.86
64853;BME280;56050;55.558;-4.644;2022-09-12T14:18:26;101068.56;;;17.73;57.79
64853;BME280;56050;55.558;-4.644;2022-09-12T14:20:53;101072.75;;;17.78;57.59
64853;BME280;56050;55.558;-4.644;2022-09-12T14:23:31;101055.97;;;17.79;57.39
64853;BME280;56050;55.558;-4.644;2022-09-12T14:25:59;101055.78;;;17.86;57.05
64853;BME280;56050;55.558;-4.644;2022-09-12T14:28:27;101057.22;;;17.91;56.44
64853;BME280;56050;55.558;-4.644;2022-09-12T14:31:04;101058.66;;;17.95;54.74
64853;BME280;56050;55.558;-4.644;2022-09-12T14:33:50;101051.59;;;17.98;54.76
64853;BME280;56050;55.558;-4.644;2022-09-12T14:36:34;101058.41;;;18.06;53.57
64853;BME280;56050;55.558;-4.644;2022-09-12T14:39:01;101055.41;;;18.16;53.35
64853;BME280;56050;55.558;-4.644;2022-09-12T14:41:35;101057.28;;;18.19;53.04
64853;BME280;56050;55.558;-4.644;2022-09-12T14:44:05;101067.75;;;18.21;52.92
64853;BME280;56050;55.558;-4.644;2022-09-12T14:46:37;101072.53;;;18.17;52.04
64853;BME280;56050;55.558;-4.644;2022-09-12T14:49:11;101071.25;;;18.22;52.57
64853;BME280;56050;55.558;-4.644;2022-09-12T14:51:47;101074.22;;;18.27;52.29
64853;BME280;56050;55.558;-4.644;2022-09-12T14:56:55;101080.47;;;18.40;52.36
64853;BME280;56050;55.558;-4.644;2022-09-12T15:04:53;101091.59;;;18.62;53.24
64853;BME280;56050;55.558;-4.644;2022-09-12T15:09:54;101087.47;;;18.70;52.88
64853;BME280;56050;55.558;-4.644;2022-09-12T15:12:20;101099.16;;;18.70;53.12
64853;BME280;56050;55.558;-4.644;2022-09-12T15:14:46;101094.94;;;18.69;52.71
64853;BME280;56050;55.558;-4.644;2022-09-12T15:17:12;101085.75;;;18.63;53.39
64853;BME280;56050;55.558;-4.644;2022-09-12T15:19:37;101089.75;;;18.59;53.81
64853;BME280;56050;55.558;-4.644;2022-09-12T15:22:02;101092.22;;;18.53;53.92
64853;BME280;56050;55.558;-4.644;2022-09-12T15:24:28;101083.72;;;18.51;54.19